createdAt,value
2018-12-10T00:01:00.859Z,93.13
2018-12-10T00:02:04.560Z,93.65
2018-12-10T00:03:12.780Z,93.27
2018-12-10T00:04:15.758Z,93.06
2018-12-10T00:05:20.414Z,92.90
2018-12-10T00:06:27.252Z,92.52
2018-12-10T00:07:30.516Z,92.44
2018-12-10T00:08:34.876Z,92.44
2018-12-10T00:09:38.341Z,92.36
2018-12-10T00:10:45.249Z,92.94
2018-12-10T00:11:48.999Z,92.35
2018-12-10T00:13:54.154Z,92.35
2018-12-10T00:14:57.120Z,92.81
2018-12-10T00:16:00.232Z,92.80
2018-12-10T00:17:05.252Z,92.71
2018-12-10T00:18:09.361Z,92.38
2018-12-10T00:19:12.283Z,92.70
2018-12-10T00:20:15.615Z,92.80
2018-12-10T00:21:19.481Z,92.47
2018-12-10T00:22:24.091Z,92.74
2018-12-10T00:23:28.277Z,92.70
2018-12-10T00:24:31.770Z,92.55
2018-12-10T00:25:34.653Z,92.07
2018-12-10T00:26:38.989Z,92.21
2018-12-10T00:27:42.523Z,92.36
2018-12-10T00:28:45.639Z,92.20
2018-12-10T00:29:48.539Z,92.00
2018-12-10T00:30:51.427Z,91.90
2018-12-10T00:31:55.176Z,92.21
2018-12-10T00:32:58.676Z,92.73
2018-12-10T00:34:01.653Z,92.35
2018-12-10T00:35:04.495Z,92.96
2018-12-10T00:36:08.622Z,92.41
2018-12-10T00:37:12.870Z,93.02
2018-12-10T00:38:16.100Z,92.37
2018-12-10T00:39:19.314Z,92.56
2018-12-10T00:40:22.185Z,92.87
2018-12-10T00:41:25.340Z,93.15
2018-12-10T00:42:29.594Z,93.20
2018-12-10T00:43:32.506Z,93.10
2018-12-10T00:44:35.824Z,93.13
2018-12-10T00:45:38.995Z,92.90
2018-12-10T00:46:43.143Z,92.74
2018-12-10T00:47:46.074Z,92.67
2018-12-10T00:48:49.572Z,92.23
2018-12-10T00:49:52.492Z,92.78
2018-12-10T00:50:55.412Z,92.73
2018-12-10T00:51:58.618Z,92.39
2018-12-10T00:53:01.568Z,92.19
2018-12-10T00:54:04.408Z,92.72
2018-12-10T00:55:07.619Z,92.65
2018-12-10T00:56:10.459Z,91.91
2018-12-10T00:57:13.350Z,92.30
2018-12-10T00:58:16.696Z,92.07
2018-12-10T00:59:19.548Z,91.91
2018-12-10T01:00:23.555Z,91.82
2018-12-10T01:01:26.610Z,91.65
2018-12-10T01:02:29.467Z,91.31
2018-12-10T01:03:32.348Z,90.68
2018-12-10T01:04:35.629Z,91.16
2018-12-10T01:05:39.598Z,91.31
2018-12-10T01:06:42.660Z,91.45
2018-12-10T01:07:45.537Z,90.25
2018-12-10T01:08:48.363Z,90.67
2018-12-10T01:09:51.258Z,90.95
2018-12-10T01:10:54.452Z,90.65
2018-12-10T01:11:57.347Z,90.91
2018-12-10T01:13:00.273Z,90.72
2018-12-10T01:14:03.121Z,90.31
2018-12-10T01:15:06.011Z,90.89
2018-12-10T01:16:08.843Z,90.96
2018-12-10T01:17:12.056Z,90.46
2018-12-10T01:18:14.908Z,89.86
2018-12-10T01:19:18.071Z,90.29
2018-12-10T01:20:20.968Z,89.32
2018-12-10T01:21:23.857Z,89.77
2018-12-10T01:22:26.832Z,89.73
2018-12-10T01:23:29.983Z,90.16
2018-12-10T01:24:32.821Z,90.24
2018-12-10T01:25:35.741Z,90.25
2018-12-10T01:26:38.614Z,90.35
2018-12-10T01:27:42.269Z,90.26
2018-12-10T01:28:45.179Z,89.95
2018-12-10T01:29:48.348Z,89.98
2018-12-10T01:30:51.251Z,90.25
2018-12-10T01:31:54.164Z,90.00
2018-12-10T01:32:57.863Z,90.06
2018-12-10T01:34:00.745Z,90.36
2018-12-10T01:35:03.664Z,90.53
2018-12-10T01:36:06.926Z,90.38
2018-12-10T01:37:09.795Z,90.85
2018-12-10T01:38:13.293Z,90.71
2018-12-10T01:39:16.159Z,90.89
2018-12-10T01:40:19.037Z,90.64
2018-12-10T01:41:21.912Z,90.10
2018-12-10T01:42:25.132Z,90.34
2018-12-10T01:43:27.975Z,90.06
2018-12-10T01:44:30.859Z,90.36
2018-12-10T01:45:33.735Z,90.21
2018-12-10T01:46:36.671Z,90.46
2018-12-10T01:47:39.537Z,90.34
2018-12-10T01:48:42.694Z,90.21
2018-12-10T01:49:45.628Z,90.48
2018-12-10T01:50:48.497Z,90.36
2018-12-10T01:51:51.398Z,89.62
2018-12-10T01:52:54.288Z,89.47
2018-12-10T01:53:57.133Z,89.31
2018-12-10T01:55:00.435Z,89.85
2018-12-10T01:56:03.341Z,89.78
2018-12-10T01:57:06.775Z,89.82
2018-12-10T01:58:09.625Z,89.62
2018-12-10T01:59:12.481Z,90.16
2018-12-10T02:00:15.391Z,90.09
2018-12-10T02:01:18.512Z,90.12
2018-12-10T02:02:21.367Z,90.08
2018-12-10T02:03:24.223Z,89.93
2018-12-10T02:04:27.148Z,90.39
2018-12-10T02:05:29.985Z,90.61
2018-12-10T02:06:33.648Z,90.81
2018-12-10T02:07:36.809Z,90.33
2018-12-10T02:08:39.741Z,90.55
2018-12-10T02:09:42.621Z,90.78
2018-12-10T02:10:45.640Z,91.07
2018-12-10T02:11:48.895Z,90.76
2018-12-10T02:12:51.746Z,90.59
2018-12-10T02:13:54.897Z,91.04
2018-12-10T02:14:57.811Z,91.14
2018-12-10T02:16:01.292Z,91.12
2018-12-10T02:17:04.136Z,90.96
2018-12-10T02:18:07.015Z,91.08
2018-12-10T02:19:09.898Z,91.08
2018-12-10T02:20:13.092Z,90.53
2018-12-10T02:21:16.275Z,89.69
2018-12-10T02:22:19.166Z,90.06
2018-12-10T02:23:22.013Z,90.09
2018-12-10T02:24:24.928Z,90.15
2018-12-10T02:25:27.928Z,90.39
2018-12-10T02:26:31.063Z,89.32
2018-12-10T02:27:33.918Z,89.66
2018-12-10T02:28:41.732Z,90.10
2018-12-10T02:29:44.586Z,89.23
2018-12-10T02:30:47.477Z,89.36
2018-12-10T02:31:50.976Z,89.37
2018-12-10T02:32:54.088Z,89.88
2018-12-10T02:33:57.056Z,90.13
2018-12-10T02:34:59.954Z,90.24
2018-12-10T02:36:02.936Z,90.25
2018-12-10T02:37:05.892Z,90.72
2018-12-10T02:38:08.790Z,90.66
2018-12-10T02:39:11.917Z,90.42
2018-12-10T02:40:14.776Z,90.49
2018-12-10T02:41:17.626Z,90.66
2018-12-10T02:42:20.480Z,91.44
2018-12-10T02:43:23.371Z,91.29
2018-12-10T02:44:26.383Z,91.40
2018-12-10T02:45:29.511Z,91.09
2018-12-10T02:46:32.485Z,91.21
2018-12-10T02:47:35.461Z,91.16
2018-12-10T02:48:38.436Z,90.69
2018-12-10T02:49:41.749Z,91.11
2018-12-10T02:50:45.207Z,90.93
2018-12-10T02:51:48.663Z,91.05
2018-12-10T02:52:51.651Z,90.53
2018-12-10T02:53:55.293Z,90.74
2018-12-10T02:54:58.233Z,90.86
2018-12-10T02:56:01.492Z,90.93
2018-12-10T02:57:05.296Z,91.16
2018-12-10T02:58:09.030Z,91.11
2018-12-10T02:59:11.917Z,91.03
2018-12-10T03:00:14.846Z,91.28
2018-12-10T03:01:17.889Z,91.06
2018-12-10T03:02:20.804Z,91.05
2018-12-10T03:03:23.905Z,91.34
2018-12-10T03:04:27.175Z,91.46
2018-12-10T03:05:30.054Z,91.76
2018-12-10T03:06:33.043Z,91.34
2018-12-10T03:07:36.009Z,91.16
2018-12-10T03:08:39.838Z,91.41
2018-12-10T03:09:42.728Z,90.94
2018-12-10T03:10:45.960Z,90.96
2018-12-10T03:11:48.935Z,90.53
2018-12-10T03:12:51.836Z,90.63
2018-12-10T03:13:54.999Z,89.82
2018-12-10T03:14:58.242Z,89.43
2018-12-10T03:16:01.149Z,89.13
2018-12-10T03:17:04.676Z,89.16
2018-12-10T03:18:07.624Z,89.58
2018-12-10T03:19:10.493Z,89.60
2018-12-10T03:20:13.466Z,89.42
2018-12-10T03:21:16.342Z,89.10
2018-12-10T03:22:19.251Z,89.93
2018-12-10T03:23:22.512Z,89.38
2018-12-10T03:24:25.379Z,89.06
2018-12-10T03:25:28.266Z,88.56
2018-12-10T03:26:31.244Z,88.65
2018-12-10T03:27:34.163Z,88.64
2018-12-10T03:28:37.094Z,87.51
2018-12-10T03:29:40.373Z,88.13
2018-12-10T03:30:44.044Z,87.84
2018-12-10T03:31:47.370Z,88.01
2018-12-10T03:32:50.227Z,87.21
2018-12-10T03:33:53.194Z,87.14
2018-12-10T03:34:56.154Z,87.29
2018-12-10T03:35:59.390Z,87.27
2018-12-10T03:37:02.301Z,86.73
2018-12-10T03:38:05.292Z,86.71
2018-12-10T03:39:08.166Z,86.49
2018-12-10T03:40:11.056Z,86.16
2018-12-10T03:41:13.928Z,86.67
2018-12-10T03:42:17.296Z,86.66
2018-12-10T03:43:20.168Z,86.87
2018-12-10T03:44:23.135Z,86.58
2018-12-10T03:45:26.029Z,86.93
2018-12-10T03:46:28.983Z,86.63
2018-12-10T03:47:31.892Z,86.72
2018-12-10T03:48:35.190Z,86.06
2018-12-10T03:49:38.114Z,86.43
2018-12-10T03:50:40.972Z,86.54
2018-12-10T03:51:43.877Z,86.10
2018-12-10T03:52:46.786Z,86.37
2018-12-10T03:53:49.753Z,86.20
2018-12-10T03:54:53.097Z,86.27
2018-12-10T03:55:56.228Z,86.19
2018-12-10T03:56:59.199Z,86.29
2018-12-10T03:58:02.151Z,86.33
2018-12-10T03:59:05.070Z,86.94
2018-12-10T04:00:08.014Z,87.06
2018-12-10T04:01:11.587Z,87.42
2018-12-10T04:02:14.544Z,87.10
2018-12-10T04:03:17.647Z,87.03
2018-12-10T04:04:20.720Z,87.26
2018-12-10T04:05:23.699Z,87.28
2018-12-10T04:06:26.600Z,86.95
2018-12-10T04:07:29.969Z,87.03
2018-12-10T04:08:32.839Z,86.99
2018-12-10T04:09:35.698Z,86.95
2018-12-10T04:10:38.609Z,87.25
2018-12-10T04:11:41.501Z,87.11
2018-12-10T04:12:44.450Z,87.06
2018-12-10T04:13:47.769Z,87.52
2018-12-10T04:14:50.699Z,86.70
2018-12-10T04:15:53.666Z,87.01
2018-12-10T04:16:56.621Z,87.18
2018-12-10T04:17:59.492Z,87.07
2018-12-10T04:19:02.441Z,87.19
2018-12-10T04:20:07.156Z,87.07
2018-12-10T04:21:10.629Z,87.35
2018-12-10T04:22:13.580Z,87.63
2018-12-10T04:23:16.482Z,87.37
2018-12-10T04:24:19.401Z,87.54
2018-12-10T04:25:22.280Z,87.47
2018-12-10T04:26:25.573Z,87.55
2018-12-10T04:27:28.802Z,87.40
2018-12-10T04:28:31.699Z,87.57
2018-12-10T04:29:34.609Z,87.57
2018-12-10T04:30:37.560Z,87.50
2018-12-10T04:31:40.457Z,87.06
2018-12-10T04:32:43.830Z,87.53
2018-12-10T04:33:46.829Z,87.75
2018-12-10T04:34:49.703Z,87.47
2018-12-10T04:35:52.648Z,86.84
2018-12-10T04:36:55.586Z,87.12
2018-12-10T04:37:58.483Z,87.27
2018-12-10T04:39:01.955Z,87.64
2018-12-10T04:40:04.933Z,87.29
2018-12-10T04:41:07.829Z,87.32
2018-12-10T04:42:10.747Z,87.30
2018-12-10T04:43:13.641Z,87.05
2018-12-10T04:44:16.550Z,87.73
2018-12-10T04:45:19.968Z,87.54
2018-12-10T04:46:22.842Z,87.58
2018-12-10T04:47:25.800Z,87.09
2018-12-10T04:48:29.686Z,87.45
2018-12-10T04:49:32.601Z,87.32
2018-12-10T04:50:35.696Z,87.31
2018-12-10T04:51:38.999Z,87.04
2018-12-10T04:52:42.889Z,87.52
2018-12-10T04:53:45.784Z,87.42
2018-12-10T04:54:48.695Z,87.49
2018-12-10T04:55:51.619Z,87.54
2018-12-10T04:56:55.128Z,87.75
2018-12-10T04:57:58.583Z,87.85
2018-12-10T04:59:01.489Z,88.17
2018-12-10T05:00:04.391Z,87.99
2018-12-10T05:01:07.252Z,88.40
2018-12-10T05:02:10.992Z,88.60
2018-12-10T05:03:16.751Z,88.36
2018-12-10T05:04:19.603Z,88.38
2018-12-10T05:05:22.458Z,88.54
2018-12-10T05:06:25.347Z,88.52
2018-12-10T05:07:28.236Z,88.51
2018-12-10T05:08:31.143Z,88.46
2018-12-10T05:09:34.425Z,88.41
2018-12-10T05:10:37.321Z,88.37
2018-12-10T05:11:40.192Z,88.58
2018-12-10T05:12:43.989Z,88.71
2018-12-10T05:13:47.590Z,89.05
2018-12-10T05:14:50.489Z,88.54
2018-12-10T05:15:53.736Z,88.63
2018-12-10T05:16:56.585Z,88.79
2018-12-10T05:18:00.389Z,88.58
2018-12-10T05:19:03.334Z,88.77
2018-12-10T05:20:06.332Z,88.59
2018-12-10T05:21:13.561Z,88.63
2018-12-10T05:22:17.081Z,88.68
2018-12-10T05:23:19.980Z,88.29
2018-12-10T05:24:22.890Z,88.14
2018-12-10T05:25:25.779Z,88.31
2018-12-10T05:26:28.670Z,88.48
2018-12-10T05:27:31.592Z,88.27
2018-12-10T05:28:34.931Z,87.95
2018-12-10T05:29:37.984Z,87.90
2018-12-10T05:30:40.886Z,87.43
2018-12-10T05:31:44.698Z,87.71
2018-12-10T05:32:47.570Z,88.01
2018-12-10T05:33:50.570Z,88.16
2018-12-10T05:34:54.012Z,87.85
2018-12-10T05:35:56.921Z,88.57
2018-12-10T05:36:59.793Z,88.02
2018-12-10T05:38:02.680Z,88.43
2018-12-10T05:39:06.330Z,88.90
2018-12-10T05:40:09.878Z,89.25
2018-12-10T05:41:13.134Z,89.59
2018-12-10T05:42:16.023Z,89.84
2018-12-10T05:43:19.358Z,89.84
2018-12-10T05:44:22.329Z,90.14
2018-12-10T05:45:25.218Z,90.05
2018-12-10T05:46:28.115Z,90.21
2018-12-10T05:47:31.428Z,89.90
2018-12-10T05:48:34.332Z,89.80
2018-12-10T05:49:37.356Z,90.08
2018-12-10T05:50:40.368Z,90.18
2018-12-10T05:51:43.468Z,90.22
2018-12-10T05:52:46.509Z,90.67
2018-12-10T05:53:49.914Z,91.01
2018-12-10T05:54:53.194Z,91.63
2018-12-10T05:55:56.120Z,91.78
2018-12-10T05:56:59.113Z,92.10
2018-12-10T05:58:02.037Z,92.19
2018-12-10T05:59:05.018Z,92.01
2018-12-10T06:00:09.702Z,92.52
2018-12-10T06:01:12.645Z,92.32
2018-12-10T06:02:15.549Z,92.85
2018-12-10T06:03:20.037Z,92.75
2018-12-10T06:04:23.157Z,92.85
2018-12-10T06:05:26.088Z,93.10
2018-12-10T06:06:29.478Z,93.37
2018-12-10T06:07:34.047Z,93.65
2018-12-10T06:08:36.946Z,93.05
2018-12-10T06:09:39.932Z,93.66
2018-12-10T06:10:42.823Z,93.27
2018-12-10T06:11:47.426Z,93.58
2018-12-10T06:12:50.813Z,93.80
2018-12-10T06:13:53.710Z,93.19
2018-12-10T06:14:56.602Z,93.82
2018-12-10T06:15:59.801Z,93.93
2018-12-10T06:17:02.734Z,93.76
2018-12-10T06:18:05.780Z,94.11
2018-12-10T06:19:10.701Z,94.35
2018-12-10T06:20:13.667Z,93.94
2018-12-10T06:21:17.648Z,94.45
2018-12-10T06:22:20.667Z,94.46
2018-12-10T06:23:25.744Z,94.01
2018-12-10T06:24:28.639Z,94.27
2018-12-10T06:25:33.682Z,94.46
2018-12-10T06:26:37.606Z,94.13
2018-12-10T06:27:41.383Z,94.67
2018-12-10T06:28:44.335Z,94.46
2018-12-10T06:29:47.289Z,95.18
2018-12-10T06:45:01.745Z,95.17
2018-12-10T06:46:05.214Z,95.14
2018-12-10T06:47:09.587Z,95.22
2018-12-10T06:48:12.548Z,95.11
2018-12-10T06:49:15.449Z,94.95
2018-12-10T06:50:18.370Z,95.34
2018-12-10T06:51:21.299Z,94.83
2018-12-10T06:52:24.240Z,95.23
2018-12-10T06:53:27.423Z,95.24
2018-12-10T06:54:31.432Z,94.99
2018-12-10T06:55:34.347Z,95.25
2018-12-10T06:56:37.248Z,95.23
2018-12-10T06:57:40.159Z,94.73
2018-12-10T06:58:43.079Z,94.80
2018-12-10T06:59:46.018Z,94.69
2018-12-10T07:00:49.410Z,94.52
2018-12-10T07:01:53.399Z,94.85
2018-12-10T07:02:56.286Z,94.30
2018-12-10T07:03:59.234Z,94.65
2018-12-10T07:05:05.145Z,94.40
2018-12-10T07:06:09.677Z,94.69
2018-12-10T07:07:14.649Z,94.54
2018-12-10T07:08:18.102Z,94.47
2018-12-10T07:09:21.033Z,94.44
2018-12-10T07:10:24.070Z,94.46
2018-12-10T07:11:27.005Z,94.72
2018-12-10T07:12:29.892Z,94.76
2018-12-10T07:13:33.195Z,94.71
2018-12-10T07:14:36.171Z,94.50
2018-12-10T07:15:39.596Z,94.78
2018-12-10T07:16:42.492Z,95.09
2018-12-10T07:17:45.638Z,95.11
2018-12-10T07:18:48.567Z,95.72
2018-12-10T07:19:52.673Z,95.64
2018-12-10T07:20:55.599Z,95.80
2018-12-10T07:21:58.467Z,95.21
2018-12-10T07:23:01.920Z,95.41
2018-12-10T07:24:05.247Z,95.67
2018-12-10T07:25:09.133Z,95.41
2018-12-10T07:26:12.605Z,95.50
2018-12-10T07:27:15.549Z,94.89
2018-12-10T07:28:18.471Z,95.14
2018-12-10T07:29:21.400Z,95.38
2018-12-10T07:30:24.382Z,95.59
2018-12-10T07:31:27.245Z,95.06
2018-12-10T07:32:30.143Z,94.90
2018-12-10T07:33:33.194Z,95.16
2018-12-10T07:34:36.121Z,95.32
2018-12-10T07:35:39.058Z,95.40
2018-12-10T07:36:41.981Z,95.26
2018-12-10T07:37:45.271Z,95.33
2018-12-10T07:38:48.166Z,95.05
2018-12-10T07:39:53.094Z,95.35
2018-12-10T07:40:56.020Z,95.56
2018-12-10T07:41:59.012Z,95.44
2018-12-10T07:43:01.936Z,95.90
2018-12-10T07:44:05.655Z,95.45
2018-12-10T07:45:08.609Z,95.41
2018-12-10T07:46:11.513Z,95.11
2018-12-10T07:47:15.045Z,94.55
2018-12-10T07:48:21.866Z,94.53
2018-12-10T07:49:25.468Z,94.75
2018-12-10T07:50:28.394Z,94.21
2018-12-10T07:51:31.680Z,94.01
2018-12-10T07:52:37.659Z,93.91
2018-12-10T07:53:40.591Z,94.14
2018-12-10T07:54:43.555Z,93.69
2018-12-10T07:55:46.481Z,93.54
2018-12-10T07:56:49.498Z,92.97
2018-12-10T07:57:54.424Z,93.81
2018-12-10T07:58:57.774Z,93.22
2018-12-10T08:00:00.851Z,93.17
2018-12-10T08:01:03.999Z,93.25
2018-12-10T08:02:07.466Z,92.59
2018-12-10T08:03:10.370Z,92.18
2018-12-10T08:04:13.422Z,92.57
2018-12-10T08:05:16.831Z,92.67
2018-12-10T08:06:19.723Z,92.60
2018-12-10T08:07:22.630Z,92.62
2018-12-10T08:08:25.574Z,92.22
2018-12-10T08:09:28.529Z,92.01
2018-12-10T08:10:31.447Z,92.58
2018-12-10T08:11:34.660Z,92.09
2018-12-10T08:12:38.290Z,92.32
2018-12-10T08:13:42.823Z,92.59
2018-12-10T08:14:45.754Z,92.75
2018-12-10T08:15:48.713Z,92.61
2018-12-10T08:16:51.595Z,92.87
2018-12-10T08:17:54.999Z,92.93
2018-12-10T08:18:57.882Z,92.85
2018-12-10T08:20:00.819Z,92.55
2018-12-10T08:21:03.681Z,93.06
2018-12-10T08:22:06.589Z,93.03
2018-12-10T08:23:09.740Z,92.88
2018-12-10T08:24:13.077Z,92.63
2018-12-10T08:25:16.002Z,93.04
2018-12-10T08:26:18.867Z,92.77
2018-12-10T08:27:21.754Z,92.75
2018-12-10T08:28:24.652Z,92.77
2018-12-10T08:29:29.575Z,92.44
2018-12-10T08:30:33.893Z,92.66
2018-12-10T08:31:36.802Z,92.66
2018-12-10T08:32:39.686Z,92.88
2018-12-10T08:33:42.586Z,93.11
2018-12-10T08:34:46.403Z,93.00
2018-12-10T08:35:49.305Z,92.59
2018-12-10T08:36:52.692Z,92.61
2018-12-10T08:37:55.622Z,92.24
2018-12-10T08:38:59.418Z,92.72
2018-12-10T08:40:02.315Z,92.65
2018-12-10T08:41:05.980Z,92.85
2018-12-10T08:42:08.896Z,92.62
2018-12-10T08:43:12.126Z,92.70
2018-12-10T08:44:15.132Z,92.16
2018-12-10T08:45:19.315Z,91.46
2018-12-10T08:46:23.895Z,92.16
2018-12-10T08:47:26.816Z,91.65
2018-12-10T08:48:29.799Z,91.71
2018-12-10T08:49:32.756Z,91.51
2018-12-10T08:50:37.259Z,91.06
2018-12-10T08:51:41.034Z,91.21
2018-12-10T08:52:44.075Z,91.58
2018-12-10T08:53:47.095Z,91.39
2018-12-10T08:54:50.524Z,91.55
2018-12-10T08:55:53.517Z,91.43
2018-12-10T08:56:56.450Z,90.30
2018-12-10T08:57:59.386Z,90.78
2018-12-10T08:59:02.316Z,91.12
2018-12-10T09:00:05.231Z,91.19
2018-12-10T09:01:08.608Z,91.71
2018-12-10T09:02:20.847Z,91.04
2018-12-10T09:03:23.713Z,90.21
2018-12-10T09:04:26.696Z,90.58
2018-12-10T09:05:29.552Z,90.22
2018-12-10T09:06:32.433Z,90.38
2018-12-10T09:07:35.910Z,90.34
2018-12-10T09:08:38.807Z,90.25
2018-12-10T09:09:41.779Z,90.61
2018-12-10T09:10:44.685Z,90.19
2018-12-10T09:11:47.771Z,90.02
2018-12-10T09:12:50.744Z,90.12
2018-12-10T09:13:54.892Z,89.94
2018-12-10T09:14:58.161Z,90.34
2018-12-10T09:16:01.087Z,90.32
2018-12-10T09:17:05.683Z,90.50
2018-12-10T09:18:09.279Z,90.50
2018-12-10T09:19:12.247Z,90.58
2018-12-10T09:20:15.697Z,90.49
2018-12-10T09:21:19.670Z,90.58
2018-12-10T09:22:22.747Z,90.44
2018-12-10T09:23:26.781Z,90.25
2018-12-10T09:24:29.761Z,90.25
2018-12-10T09:25:32.847Z,90.50
2018-12-10T09:26:36.244Z,90.24
2018-12-10T09:27:40.005Z,90.34
2018-12-10T09:28:43.055Z,90.27
2018-12-10T09:29:46.646Z,90.36
2018-12-10T09:30:50.347Z,89.99
2018-12-10T09:31:53.788Z,90.02
2018-12-10T09:32:57.715Z,90.09
2018-12-10T09:34:00.638Z,89.97
2018-12-10T09:35:03.601Z,89.52
2018-12-10T09:36:06.641Z,89.94
2018-12-10T09:37:10.231Z,89.81
2018-12-10T09:38:13.195Z,89.55
2018-12-10T09:39:16.639Z,89.61
2018-12-10T09:40:20.005Z,89.56
2018-12-10T09:41:23.043Z,89.57
2018-12-10T09:42:26.090Z,89.72
2018-12-10T09:43:29.223Z,89.61
2018-12-10T09:44:32.321Z,89.68
2018-12-10T09:45:36.052Z,88.96
2018-12-10T09:46:38.984Z,89.26
2018-12-10T09:47:42.059Z,88.55
2018-12-10T09:48:45.016Z,88.84
2018-12-10T09:49:48.830Z,88.93
2018-12-10T09:50:51.797Z,89.13
2018-12-10T09:51:55.268Z,88.26
2018-12-10T09:52:59.068Z,88.98
2018-12-10T09:54:02.996Z,88.47
2018-12-10T09:55:07.050Z,88.75
2018-12-10T09:56:09.998Z,88.59
2018-12-10T09:57:13.186Z,88.50
2018-12-10T09:58:16.745Z,88.09
2018-12-10T09:59:19.801Z,88.84
2018-12-10T10:00:22.836Z,88.91
2018-12-10T10:01:26.168Z,88.53
2018-12-10T10:02:29.393Z,89.03
2018-12-10T10:03:33.155Z,88.67
2018-12-10T10:04:37.544Z,88.45
2018-12-10T10:05:41.116Z,88.51
2018-12-10T10:06:45.491Z,87.44
2018-12-10T10:07:48.767Z,88.04
2018-12-10T10:08:52.836Z,86.94
2018-12-10T10:09:55.742Z,87.29
2018-12-10T10:11:00.145Z,87.11
2018-12-10T10:12:03.759Z,87.50
2018-12-10T10:13:06.617Z,88.30
2018-12-10T10:14:09.513Z,87.93
2018-12-10T10:15:13.427Z,87.15
2018-12-10T10:16:16.398Z,87.89
2018-12-10T10:17:19.683Z,87.55
2018-12-10T10:18:25.600Z,87.38
2018-12-10T10:19:28.514Z,87.21
2018-12-10T10:20:31.710Z,87.68
2018-12-10T10:21:35.596Z,88.08
2018-12-10T10:22:39.443Z,88.27
2018-12-10T10:23:42.393Z,88.57
2018-12-10T10:24:46.035Z,87.79
2018-12-10T10:25:49.028Z,87.87
2018-12-10T10:26:52.012Z,87.76
2018-12-10T10:27:55.027Z,87.94
2018-12-10T10:29:00.123Z,88.17
2018-12-10T10:30:03.239Z,88.04
2018-12-10T10:31:06.224Z,88.52
2018-12-10T10:32:09.136Z,88.75
2018-12-10T10:33:13.486Z,88.20
2018-12-10T10:34:17.520Z,87.98
2018-12-10T10:35:20.882Z,87.89
2018-12-10T10:36:23.842Z,87.75
2018-12-10T10:37:26.835Z,88.37
2018-12-10T10:38:29.750Z,88.60
2018-12-10T10:39:32.663Z,89.01
2018-12-10T10:40:36.235Z,89.37
2018-12-10T10:41:39.658Z,89.29
2018-12-10T10:42:43.242Z,89.23
2018-12-10T10:43:46.286Z,88.59
2018-12-10T10:44:49.262Z,88.70
2018-12-10T10:45:52.193Z,89.11
2018-12-10T10:46:57.290Z,89.29
2018-12-10T10:48:00.593Z,89.75
2018-12-10T10:49:04.638Z,89.49
2018-12-10T10:50:08.022Z,89.17
2018-12-10T10:51:12.230Z,89.40
2018-12-10T10:52:15.286Z,88.21
2018-12-10T10:53:18.222Z,87.61
2018-12-10T10:54:22.266Z,88.49
2018-12-10T10:55:25.307Z,88.80
2018-12-10T10:56:28.255Z,88.57
2018-12-10T10:57:31.550Z,88.44
2018-12-10T10:58:40.476Z,88.94
2018-12-10T10:59:44.747Z,88.90
2018-12-10T11:00:54.388Z,88.60
2018-12-10T11:02:04.618Z,88.71
2018-12-10T11:03:11.514Z,88.99
2018-12-10T11:04:14.464Z,88.16
2018-12-10T11:05:17.390Z,87.90
2018-12-10T11:06:20.419Z,88.09
2018-12-10T11:07:23.912Z,87.76
2018-12-10T11:08:27.858Z,88.15
2018-12-10T11:09:30.771Z,88.63
2018-12-10T11:10:33.631Z,88.26
2018-12-10T11:11:38.170Z,88.63
2018-12-10T11:12:41.240Z,89.22
2018-12-10T11:13:44.629Z,88.93
2018-12-10T11:14:47.674Z,90.46
2018-12-10T11:15:51.126Z,89.48
2018-12-10T11:16:54.121Z,90.09
2018-12-10T11:17:57.183Z,90.28
2018-12-10T11:19:01.515Z,90.01
2018-12-10T11:20:04.931Z,90.29
2018-12-10T11:21:07.865Z,90.89
2018-12-10T11:22:10.881Z,89.89
2018-12-10T11:23:13.906Z,89.84
2018-12-10T11:24:16.865Z,90.02
2018-12-10T11:25:19.780Z,89.75
2018-12-10T11:26:23.260Z,90.50
2018-12-10T11:27:26.130Z,90.41
2018-12-10T11:28:29.733Z,90.04
2018-12-10T11:29:32.685Z,90.04
2018-12-10T11:42:43.637Z,90.57
2018-12-10T11:45:00.637Z,91.67
2018-12-10T11:46:04.422Z,92.30
2018-12-10T11:47:13.180Z,91.35
2018-12-10T11:48:16.055Z,91.45
2018-12-10T11:49:20.576Z,91.66
2018-12-10T11:50:23.761Z,91.96
2018-12-10T11:51:27.150Z,92.60
2018-12-10T11:52:31.252Z,92.90
2018-12-10T11:53:35.392Z,93.34
2018-12-10T11:54:38.305Z,93.61
2018-12-10T11:55:41.971Z,93.53
2018-12-10T11:56:44.931Z,93.75
2018-12-10T11:57:48.393Z,93.61
2018-12-10T11:58:51.393Z,94.33
2018-12-10T11:59:55.696Z,94.03
2018-12-10T12:01:00.156Z,94.26
2018-12-10T12:02:03.071Z,94.05
2018-12-10T12:03:05.969Z,94.17
2018-12-10T12:04:08.921Z,94.17
2018-12-10T12:05:12.620Z,94.38
2018-12-10T12:06:15.989Z,94.86
2018-12-10T12:07:18.851Z,95.09
2018-12-10T12:08:21.817Z,95.38
2018-12-10T12:09:25.384Z,95.08
2018-12-10T12:10:32.377Z,94.59
2018-12-10T12:11:35.322Z,94.49
2018-12-10T12:12:41.950Z,94.65
2018-12-10T12:13:44.911Z,94.74
2018-12-10T12:14:49.534Z,94.67
2018-12-10T12:15:52.508Z,95.11
2018-12-10T12:16:55.464Z,94.93
2018-12-10T12:17:59.220Z,94.48
2018-12-10T12:19:11.083Z,94.87
2018-12-10T12:20:09.584Z,94.15
2018-12-10T12:21:12.603Z,94.60
2018-12-10T12:22:16.528Z,93.71
2018-12-10T12:23:20.646Z,93.92
2018-12-10T12:24:30.778Z,94.45
2018-12-10T12:25:34.564Z,94.83
2018-12-10T12:26:37.604Z,95.25
2018-12-10T12:27:43.069Z,94.68
2018-12-10T12:28:47.045Z,95.29
2018-12-10T12:29:56.021Z,94.96
2018-12-10T12:31:00.532Z,94.82
2018-12-10T12:32:05.146Z,94.93
2018-12-10T12:33:08.512Z,95.29
2018-12-10T12:34:11.429Z,95.28
2018-12-10T12:35:14.354Z,95.03
2018-12-10T12:36:18.774Z,94.80
2018-12-10T12:37:21.667Z,94.44
2018-12-10T12:38:24.610Z,94.70
2018-12-10T12:39:27.540Z,95.26
2018-12-10T12:40:30.420Z,95.30
2018-12-10T12:41:34.518Z,94.94
2018-12-10T12:42:37.852Z,94.70
2018-12-10T12:43:43.766Z,95.38
2018-12-10T12:44:46.732Z,95.16
2018-12-10T12:45:50.395Z,95.35
2018-12-10T12:46:53.309Z,95.22
2018-12-10T12:47:56.254Z,95.38
2018-12-10T12:48:59.467Z,95.04
2018-12-10T12:50:02.334Z,95.11
2018-12-10T12:51:08.284Z,95.48
2018-12-10T12:52:11.227Z,95.40
2018-12-10T12:54:33.469Z,96.07
2018-12-10T12:55:36.361Z,95.67
2018-12-10T12:56:39.498Z,96.03
2018-12-10T12:57:42.482Z,95.74
2018-12-10T12:58:45.481Z,96.43
2018-12-10T12:59:48.514Z,96.42
2018-12-10T13:00:51.398Z,96.08
2018-12-10T13:01:55.417Z,95.79
2018-12-10T13:02:58.298Z,95.98
2018-12-10T13:04:01.197Z,96.12
2018-12-10T13:05:04.241Z,96.32
2018-12-10T13:06:07.634Z,96.40
2018-12-10T13:07:11.330Z,96.33
2018-12-10T13:08:14.927Z,96.40
2018-12-10T13:09:21.820Z,96.73
2018-12-10T13:10:23.616Z,96.39
2018-12-10T13:11:27.303Z,96.19
2018-12-10T13:12:30.276Z,96.61
2018-12-10T13:13:34.259Z,96.31
2018-12-10T13:14:37.776Z,96.49
2018-12-10T13:15:42.672Z,96.46
2018-12-10T13:16:49.382Z,96.55
2018-12-10T13:17:55.038Z,96.51
2018-12-10T13:18:57.947Z,96.14
2018-12-10T13:20:00.891Z,96.39
2018-12-10T13:21:05.673Z,96.53
2018-12-10T13:22:09.003Z,96.32
2018-12-10T13:23:12.911Z,96.13
2018-12-10T13:24:16.869Z,95.95
2018-12-10T13:25:23.644Z,96.30
2018-12-10T13:26:26.898Z,96.31
2018-12-10T13:27:30.239Z,95.92
2018-12-10T13:28:34.482Z,96.40
2018-12-10T13:29:38.470Z,96.41
2018-12-10T13:30:41.402Z,96.07
2018-12-10T13:31:44.271Z,96.25
2018-12-10T13:32:50.483Z,96.16
2018-12-10T13:33:54.766Z,96.39
2018-12-10T13:34:57.678Z,96.03
2018-12-10T13:36:01.036Z,96.27
2018-12-10T13:37:04.446Z,96.16
2018-12-10T13:38:12.367Z,96.35
2018-12-10T13:39:12.713Z,96.06
2018-12-10T13:40:16.211Z,96.04
2018-12-10T13:41:19.484Z,96.00
2018-12-10T13:42:22.856Z,95.77
2018-12-10T13:43:26.002Z,96.04
2018-12-10T13:44:29.940Z,95.56
2018-12-10T13:45:32.916Z,95.81
2018-12-10T13:46:35.785Z,95.79
2018-12-10T13:47:38.669Z,95.53
2018-12-10T13:48:41.899Z,95.92
2018-12-10T13:49:45.372Z,95.30
2018-12-10T13:50:49.683Z,95.67
2018-12-10T13:51:53.557Z,96.04
2018-12-10T13:52:57.009Z,95.99
2018-12-10T13:54:00.106Z,95.88
2018-12-10T13:55:03.127Z,96.36
2018-12-10T13:56:06.389Z,96.42
2018-12-10T13:57:09.942Z,96.27
2018-12-10T13:58:13.511Z,96.33
2018-12-10T13:59:17.182Z,96.39
2018-12-10T14:00:21.513Z,96.39
2018-12-10T14:01:24.931Z,96.21
2018-12-10T14:02:30.325Z,96.77
2018-12-10T14:03:34.020Z,97.04
2018-12-10T14:04:41.854Z,96.75
2018-12-10T14:05:47.628Z,97.12
2018-12-10T14:06:55.915Z,97.33